地図

経路データ

SID SEASON NUMBER BASIN SUBBASIN NAME ISO_TIME NATURE LAT LON WMO_WIND WMO_PRES WMO_AGENCY TRACK_TYPE DIST2LAND LANDFALL IFLAG USA_AGENCY USA_ATCF_ID USA_LAT USA_LON USA_RECORD USA_STATUS USA_WIND USA_PRES USA_SSHS USA_R34_NE USA_R34_SE USA_R34_SW USA_R34_NW USA_R50_NE USA_R50_SE USA_R50_SW USA_R50_NW USA_R64_NE USA_R64_SE USA_R64_SW USA_R64_NW USA_POCI USA_ROCI USA_RMW USA_EYE TOKYO_LAT TOKYO_LON TOKYO_GRADE TOKYO_WIND TOKYO_PRES TOKYO_R50_DIR TOKYO_R50_LONG TOKYO_R50_SHORT TOKYO_R30_DIR TOKYO_R30_LONG TOKYO_R30_SHORT TOKYO_LAND CMA_LAT CMA_LON CMA_CAT CMA_WIND CMA_PRES HKO_LAT HKO_LON HKO_CAT HKO_WIND HKO_PRES NEWDELHI_LAT NEWDELHI_LON NEWDELHI_GRADE NEWDELHI_WIND NEWDELHI_PRES NEWDELHI_CI NEWDELHI_DP NEWDELHI_POCI REUNION_LAT REUNION_LON REUNION_TYPE REUNION_WIND REUNION_PRES REUNION_TNUM REUNION_CI REUNION_RMW REUNION_R34_NE REUNION_R34_SE REUNION_R34_SW REUNION_R34_NW REUNION_R50_NE REUNION_R50_SE REUNION_R50_SW REUNION_R50_NW REUNION_R64_NE REUNION_R64_SE REUNION_R64_SW REUNION_R64_NW BOM_LAT BOM_LON BOM_TYPE BOM_WIND BOM_PRES BOM_TNUM BOM_CI BOM_RMW BOM_R34_NE BOM_R34_SE BOM_R34_SW BOM_R34_NW BOM_R50_NE BOM_R50_SE BOM_R50_SW BOM_R50_NW BOM_R64_NE BOM_R64_SE BOM_R64_SW BOM_R64_NW BOM_ROCI BOM_POCI BOM_EYE BOM_POS_METHOD BOM_PRES_METHOD NADI_LAT NADI_LON NADI_CAT NADI_WIND NADI_PRES WELLINGTON_LAT WELLINGTON_LON WELLINGTON_WIND WELLINGTON_PRES DS824_LAT DS824_LON DS824_STAGE DS824_WIND DS824_PRES TD9636_LAT TD9636_LON TD9636_STAGE TD9636_WIND TD9636_PRES TD9635_LAT TD9635_LON TD9635_WIND TD9635_PRES TD9635_ROCI NEUMANN_LAT NEUMANN_LON NEUMANN_CLASS NEUMANN_WIND NEUMANN_PRES MLC_LAT MLC_LON MLC_CLASS MLC_WIND MLC_PRES USA_GUST BOM_GUST BOM_GUST_PER REUNION_GUST REUNION_GUST_PER USA_SEAHGT USA_SEARAD_NE USA_SEARAD_SE USA_SEARAD_SW USA_SEARAD_NW STORM_SPEED STORM_DIR
1993258N11279 1993 69 NA CS GERT 1993-09-14 18:00:00 TS 10.6000 -80.7000 25 1008 hurdat_atl main 164 164 O_____________ hurdat_atl AL081993 10.6000 -80.7000 TD 25 1008 -1 5 276
1993258N11279 1993 69 NA CS GERT 1993-09-14 21:00:00 TS 10.6300 -80.9676 main 176 176 P_____________ AL081993 10.6300 -80.9676 TD 27 1006 -1 6 280
1993258N11279 1993 69 NA CS GERT 1993-09-15 00:00:00 TS 10.7000 -81.3000 30 1005 hurdat_atl main 187 166 O_____________ hurdat_atl AL081993 10.7000 -81.3000 TD 30 1005 -1 8 285
1993258N11279 1993 69 NA CS GERT 1993-09-15 03:00:00 TS 10.8351 -81.7350 main 166 142 P_____________ AL081993 10.8351 -81.7350 TD 30 1003 -1 9 289
1993258N11279 1993 69 NA CS GERT 1993-09-15 06:00:00 TS 11.0000 -82.2000 30 1001 hurdat_atl main 142 114 O_____________ hurdat_atl AL081993 11.0000 -82.2000 TD 30 1001 -1 9 289
1993258N11279 1993 69 NA CS GERT 1993-09-15 09:00:00 TS 11.1349 -82.6076 main 114 73 P_____________ AL081993 11.1349 -82.6076 TD 32 1001 -1 8 291
1993258N11279 1993 69 NA CS GERT 1993-09-15 12:00:00 TS 11.3000 -83.0000 35 1001 hurdat_atl main 73 24 O_____________ hurdat_atl AL081993 11.3000 -83.0000 TS 35 1001 0 9 297
1993258N11279 1993 69 NA CS GERT 1993-09-15 15:00:00 TS 11.5500 -83.4224 main 21 0 P_____________ AL081993 11.5500 -83.4224 TS 35 1003 0 9 303
1993258N11279 1993 69 NA CS GERT 1993-09-15 18:00:00 TS 11.8000 -83.8000 35 1005 hurdat_atl main 0 0 O_____________ hurdat_atl AL081993 11.8000 -83.8000 L TS 35 1005 0 8 303
1993258N11279 1993 69 NA NA GERT 1993-09-15 21:00:00 TS 11.9574 -84.0652 main 0 0 P_____________ AL081993 11.9574 -84.0652 TS 32 1005 -1 6 302
1993258N11279 1993 69 NA NA GERT 1993-09-16 00:00:00 TS 12.1000 -84.3000 30 1006 hurdat_atl main 0 0 O_____________ hurdat_atl AL081993 12.1000 -84.3000 TD 30 1006 -1 6 303
1993258N11279 1993 69 NA NA GERT 1993-09-16 03:00:00 TS 12.2925 -84.6000 main 0 0 P_____________ AL081993 12.2925 -84.6000 TD 30 1006 -1 7 304
1993258N11279 1993 69 NA NA GERT 1993-09-16 06:00:00 TS 12.5000 -84.9000 30 1006 hurdat_atl main 0 0 O_____________ hurdat_atl AL081993 12.5000 -84.9000 TD 30 1006 -1 7 306
1993258N11279 1993 69 NA NA GERT 1993-09-16 09:00:00 TS 12.7000 -85.1650 main 0 0 P_____________ AL081993 12.7000 -85.1650 TD 30 1006 -1 6 309
1993258N11279 1993 69 NA NA GERT 1993-09-16 12:00:00 TS 12.9000 -85.4000 30 1006 hurdat_atl main 0 0 O_____________ hurdat_atl AL081993 12.9000 -85.4000 TD 30 1006 -1 6 313
1993258N11279 1993 69 NA NA GERT 1993-09-16 15:00:00 TS 13.0924 -85.6001 main 0 0 P_____________ AL081993 13.0924 -85.6001 TD 27 1006 -1 6 316
1993258N11279 1993 69 NA NA GERT 1993-09-16 18:00:00 TS 13.3000 -85.8000 25 1006 hurdat_atl main 0 0 O_____________ hurdat_atl AL081993 13.3000 -85.8000 TD 25 1006 -1 6 315
1993258N11279 1993 69 NA NA GERT 1993-09-16 21:00:00 TS 13.5275 -86.0426 main 0 0 P_____________ AL081993 13.5275 -86.0426 TD 25 1006 -1 7 316
1993258N11279 1993 69 NA NA GERT 1993-09-17 00:00:00 TS 13.8000 -86.3000 25 1006 hurdat_atl main 0 0 O_____________ hurdat_atl AL081993 13.8000 -86.3000 TD 25 1006 -1 8 320
1993258N11279 1993 69 NA NA GERT 1993-09-17 03:00:00 TS 14.1200 -86.5501 main 0 0 P_____________ AL081993 14.1200 -86.5501 TD 25 1006 -1 9 325
1993258N11279 1993 69 NA NA GERT 1993-09-17 06:00:00 TS 14.5000 -86.8000 25 1006 hurdat_atl main 0 0 O_____________ hurdat_atl AL081993 14.5000 -86.8000 TD 25 1006 -1 10 329
1993258N11279 1993 69 NA NA GERT 1993-09-17 09:00:00 TS 14.9350 -87.0501 main 0 0 P_____________ AL081993 14.9350 -87.0501 TD 25 1006 -1 10 332
1993258N11279 1993 69 NA NA GERT 1993-09-17 12:00:00 TS 15.4000 -87.3000 25 1006 hurdat_atl main 0 0 O_____________ hurdat_atl AL081993 15.4000 -87.3000 TD 25 1006 -1 10 331
1993258N11279 1993 69 NA CS GERT 1993-09-17 15:00:00 TS 15.8425 -87.5650 main 0 0 P_____________ AL081993 15.8425 -87.5650 TD 30 1003 -1 10 332
1993258N11279 1993 69 NA CS GERT 1993-09-17 18:00:00 TS 16.3000 -87.8000 35 1001 hurdat_atl main 55 38 O_____________ hurdat_atl AL081993 16.3000 -87.8000 TS 35 1001 0 10 339
1993258N11279 1993 69 NA CS GERT 1993-09-17 21:00:00 TS 16.7999 -87.9503 main 30 21 P_____________ AL081993 16.7999 -87.9503 TS 35 1000 0 10 344
1993258N11279 1993 69 NA CS GERT 1993-09-18 00:00:00 TS 17.3000 -88.1000 35 1000 hurdat_atl main 21 0 O_____________ hurdat_atl AL081993 17.3000 -88.1000 L TS 35 1000 0 11 340
1993258N11279 1993 69 NA NA GERT 1993-09-18 03:00:00 TS 17.7874 -88.3200 main 0 0 P_____________ AL081993 17.7874 -88.3200 TS 35 1001 0 10 332
1993258N11279 1993 69 NA NA GERT 1993-09-18 06:00:00 TS 18.2000 -88.6000 35 1002 hurdat_atl main 0 0 O_____________ hurdat_atl AL081993 18.2000 -88.6000 TS 35 1002 0 9 322
1993258N11279 1993 69 NA NA GERT 1993-09-18 09:00:00 TS 18.4797 -88.8979 main 0 0 P_____________ AL081993 18.4797 -88.8979 TS 32 1002 -1 8 307
1993258N11279 1993 69 NA NA GERT 1993-09-18 12:00:00 TS 18.7000 -89.3000 30 1003 hurdat_atl main 0 0 O_____________ hurdat_atl AL081993 18.7000 -89.3000 TD 30 1003 -1 10 297
1993258N11279 1993 69 NA NA GERT 1993-09-18 15:00:00 TS 18.9577 -89.8699 main 0 0 P_____________ AL081993 18.9577 -89.8699 TD 30 1003 -1 12 294
1993258N11279 1993 69 NA NA GERT 1993-09-18 18:00:00 TS 19.2000 -90.5000 30 1003 hurdat_atl main 0 0 O_____________ hurdat_atl AL081993 19.2000 -90.5000 TD 30 1003 -1 12 292
1993258N11279 1993 69 NA GM GERT 1993-09-18 21:00:00 TS 19.4074 -91.0727 main 24 24 P_____________ AL081993 19.4074 -91.0727 TD 30 1002 -1 11 291
1993258N11279 1993 69 NA GM GERT 1993-09-19 00:00:00 TS 19.6000 -91.6000 30 1001 hurdat_atl main 74 74 O_____________ hurdat_atl AL081993 19.6000 -91.6000 TD 30 1001 -1 10 292
1993258N11279 1993 69 NA GM GERT 1993-09-19 03:00:00 TS 19.7924 -92.0802 main 118 118 P_____________ AL081993 19.7924 -92.0802 TD 32 1000 -1 9 295
1993258N11279 1993 69 NA GM GERT 1993-09-19 06:00:00 TS 20.0000 -92.5000 35 1000 hurdat_atl main 156 156 O_____________ hurdat_atl AL081993 20.0000 -92.5000 TS 35 1000 0 9 303
1993258N11279 1993 69 NA GM GERT 1993-09-19 09:00:00 TS 20.2648 -92.8650 main 191 191 P_____________ AL081993 20.2648 -92.8650 TS 37 996 0 8 307
1993258N11279 1993 69 NA GM GERT 1993-09-19 12:00:00 TS 20.5000 -93.2000 40 993 hurdat_atl main 218 218 O_____________ hurdat_atl AL081993 20.5000 -93.2000 TS 40 993 0 8 298
1993258N11279 1993 69 NA GM GERT 1993-09-19 15:00:00 TS 20.6226 -93.5801 main 242 242 P_____________ AL081993 20.6226 -93.5801 TS 42 992 0 7 287
1993258N11279 1993 69 NA GM GERT 1993-09-19 18:00:00 TS 20.7000 -93.9000 45 992 hurdat_atl main 261 256 O_____________ hurdat_atl AL081993 20.7000 -93.9000 TS 45 992 0 5 292
1993258N11279 1993 69 NA GM GERT 1993-09-19 21:00:00 TS 20.7997 -94.0427 main 266 255 P_____________ AL081993 20.7997 -94.0427 TS 50 991 0 3 305
1993258N11279 1993 69 NA GM GERT 1993-09-20 00:00:00 TS 20.9000 -94.2000 55 990 hurdat_atl main 255 233 O_____________ hurdat_atl AL081993 20.9000 -94.2000 TS 55 990 0 5 293
1993258N11279 1993 69 NA GM GERT 1993-09-20 03:00:00 TS 21.0076 -94.5549 main 224 198 P_____________ AL081993 21.0076 -94.5549 TS 60 986 0 8 285
1993258N11279 1993 69 NA GM GERT 1993-09-20 06:00:00 TS 21.1000 -95.0000 65 982 hurdat_atl main 198 167 O_____________ hurdat_atl AL081993 21.1000 -95.0000 HU 65 982 1 8 280
1993258N11279 1993 69 NA GM GERT 1993-09-20 09:00:00 TS 21.1573 -95.4276 main 175 137 P_____________ AL081993 21.1573 -95.4276 HU 72 980 1 8 277
1993258N11279 1993 69 NA GM GERT 1993-09-20 12:00:00 TS 21.2000 -95.9000 80 978 hurdat_atl main 137 98 O_____________ hurdat_atl AL081993 21.2000 -95.9000 HU 80 978 1 10 277
1993258N11279 1993 69 NA GM GERT 1993-09-20 15:00:00 TS 21.2807 -96.4464 main 98 41 P_____________ AL081993 21.2807 -96.4464 HU 82 974 1 10 276
1993258N11279 1993 69 NA GM GERT 1993-09-20 18:00:00 TS 21.3000 -97.0000 85 970 hurdat_atl main 41 0 O_____________ hurdat_atl AL081993 21.3000 -97.0000 HU 85 970 2 10 265
1993258N11279 1993 69 NA NA GERT 1993-09-20 21:00:00 TS 21.2000 -97.5000 85 970 hurdat_atl main 0 0 O_____________ hurdat_atl AL081993 21.2000 -97.5000 L HU 85 970 2 12 261
1993258N11279 1993 69 NA NA GERT 1993-09-21 00:00:00 TS 21.1000 -98.3000 65 984 hurdat_atl main 0 0 O_____________ hurdat_atl AL081993 21.1000 -98.3000 HU 65 984 1 16 263
1993258N11279 1993 69 NA NA GERT 1993-09-21 03:00:00 TS 20.9926 -99.1922 main 0 0 P_____________ AL081993 20.9926 -99.1922 HU 52 992 0 18 264
1993258N11279 1993 69 NA NA GERT 1993-09-21 06:00:00 TS 20.9000 -100.200 40 1000 hurdat_atl main 0 0 O_____________ hurdat_atl AL081993 20.9000 -100.200 TS 40 1000 0 20 265
1993258N11279 1993 69 NA NA GERT 1993-09-21 09:00:00 TS 20.8349 -101.328 main 0 0 P_____________ AL081993 20.8349 -101.328 TS 32 1001 -1 22 267
1993258N11279 1993 69 NA NA GERT 1993-09-21 12:00:00 TS 20.8000 -102.500 25 1002 hurdat_atl main 0 0 O_____________ hurdat_atl AL081993 20.8000 -102.500 TD 25 1002 -1 21 269
1993258N11279 1993 69 NA NA GERT 1993-09-21 15:00:00 TS 20.7935 -103.620 main 0 0 P_____________ AL081993 20.7847 -103.637 TD 22 1003 -1 21 270
1993258N11279 1993 69 NA NA GERT 1993-09-21 18:00:00 TS 20.8000 -104.700 20 1004 hurdat_atl main 0 0 O_____________ hurdat_atl AL081993 20.8000 -104.700 TD 20 1004 -1 19 272
1993258N11279 1993 69 EP MM GERT 1993-09-21 21:00:00 TS 20.8663 -105.642 main 15 15 P_____________ AL081993 20.8495 -105.667 TD 25 -1 17 273
1993258N11279 1993 69 EP MM GERT 1993-09-22 00:00:00 TS 20.9000 -106.500 30 hurdat_epa main 100 100 O_____________ hurdat_epa EP141993 20.9000 -106.500 TD 30 -1 15 271
1993258N11279 1993 69 EP MM GERT 1993-09-22 03:00:00 TS 20.8920 -107.210 main 165 165 P_____________ EP141993 20.8920 -107.210 TD 30 -1 12 270
1993258N11279 1993 69 EP MM GERT 1993-09-22 06:00:00 TS 20.9000 -107.800 30 hurdat_epa main 225 225 O_____________ hurdat_epa EP141993 20.9000 -107.800 TD 30 -1 11 274
1993258N11279 1993 69 EP MM GERT 1993-09-22 09:00:00 TS 20.9623 -108.345 main 262 226 P_____________ EP141993 20.9623 -108.345 TD 30 -1 10 282
1993258N11279 1993 69 EP MM GERT 1993-09-22 12:00:00 TS 21.1000 -108.800 30 hurdat_epa main 226 192 O_____________ hurdat_epa EP141993 21.1000 -108.800 TD 30 -1 8 296
1993258N11279 1993 69 EP MM GERT 1993-09-22 15:00:00 TS 21.3195 -109.143 main 192 148 P_____________ EP141993 21.3195 -109.143 TD 30 -1 8 307
1993258N11279 1993 69 EP MM GERT 1993-09-22 18:00:00 TS 21.6000 -109.500 30 hurdat_epa main 148 111 O_____________ hurdat_epa EP141993 21.6000 -109.500 TD 30 -1 10 305
1993258N11279 1993 69 EP MM GERT 1993-09-22 21:00:00 TS 21.9002 -110.035 main 111 93 P_____________ EP141993 21.9002 -110.035 TD 30 -1 12 300
1993258N11279 1993 69 EP MM GERT 1993-09-23 00:00:00 TS 22.2000 -110.600 30 hurdat_epa main 99 98 O_____________ hurdat_epa EP141993 22.2000 -110.600 TD 30 -1 11 301
1993258N11279 1993 69 EP MM GERT 1993-09-23 03:00:00 TS 22.4797 -111.065 main 121 121 P_____________ EP141993 22.4797 -111.065 TD 30 -1 10 301
1993258N11279 1993 69 EP MM GERT 1993-09-23 06:00:00 TS 22.7000 -111.500 30 hurdat_epa main 144 144 O_____________ hurdat_epa EP141993 22.7000 -111.500 TD 30 -1 9 292
1993258N11279 1993 69 EP MM GERT 1993-09-23 09:00:00 TS 22.8226 -111.980 main 171 168 P_____________ EP141993 22.8226 -111.980 TD 30 -1 9 284
1993258N11279 1993 69 EP MM GERT 1993-09-23 12:00:00 TS 22.9000 -112.400 30 hurdat_epa main 186 186 O_____________ hurdat_epa EP141993 22.9000 -112.400 TD 30 -1 7 285
1993258N11279 1993 69 EP MM GERT 1993-09-23 15:00:00 TS 22.9998 -112.680 main 191 186 P_____________ EP141993 22.9998 -112.680 TD 30 -1 5 293
1993258N11279 1993 69 EP MM GERT 1993-09-23 18:00:00 TS 23.1000 -112.900 30 hurdat_epa main 192 189 O_____________ hurdat_epa EP141993 23.1000 -112.900 TD 30 -1 5 296
1993258N11279 1993 69 EP MM GERT 1993-09-23 21:00:00 TS 23.2075 -113.150 main 196 198 P_____________ EP141993 23.2075 -113.150 TD 30 -1 5 293
1993258N11279 1993 69 EP MM GERT 1993-09-24 00:00:00 TS 23.3000 -113.400 30 hurdat_epa main 204 204 O_____________ hurdat_epa EP141993 23.3000 -113.400 TD 30 -1 5 289
1993258N11279 1993 69 EP MM GERT 1993-09-24 03:00:00 TS 23.3725 -113.665 main 217 217 P_____________ EP141993 23.3725 -113.665 TD 27 -1 5 282
1993258N11279 1993 69 EP MM GERT 1993-09-24 06:00:00 TS 23.4000 -113.900 25 hurdat_epa main 232 232 O_____________ hurdat_epa EP141993 23.4000 -113.900 TD 25 -1 4 271
1993258N11279 1993 69 EP MM GERT 1993-09-24 09:00:00 TS 23.3799 -114.073 main 248 248 P_____________ EP141993 23.3799 -114.073 TD 25 -1 3 250
1993258N11279 1993 69 EP MM GERT 1993-09-24 12:00:00 TS 23.3000 -114.200 25 hurdat_epa main 263 263 O_____________ hurdat_epa EP141993 23.3000 -114.200 TD 25 -1 3 225
1993258N11279 1993 69 EP MM GERT 1993-09-24 15:00:00 TS 23.1650 -114.308 main 278 278 P_____________ EP141993 23.1650 -114.308 TD 25 -1 4 211
1993258N11279 1993 69 EP MM GERT 1993-09-24 18:00:00 TS 23.0000 -114.400 25 hurdat_epa main 300 300 O_____________ hurdat_epa EP141993 23.0000 -114.400 TD 25 -1 3 211
1993258N11279 1993 69 EP MM GERT 1993-09-24 21:00:00 TS 22.8725 -114.492 main 315 315 P_____________ EP141993 22.8725 -114.492 TD 25 -1 4 211
1993258N11279 1993 69 EP MM GERT 1993-09-25 00:00:00 TS 22.7000 -114.600 25 hurdat_epa main 338 338 O_____________ hurdat_epa EP141993 22.7000 -114.600 TD 25 -1 5 207
1993258N11279 1993 69 EP MM GERT 1993-09-25 03:00:00 TS 22.4150 -114.743 main 369 369 P_____________ EP141993 22.4150 -114.743 TD 25 -1 7 205
1993258N11279 1993 69 EP MM GERT 1993-09-25 06:00:00 TS 22.1000 -114.900 25 hurdat_epa main 407 407 O_____________ hurdat_epa EP141993 22.1000 -114.900 TD 25 -1 6 206
1993258N11279 1993 69 EP MM GERT 1993-09-25 09:00:00 TS 21.8350 -115.042 main 439 439 P_____________ EP141993 21.8350 -115.042 TD 25 -1 6 209
1993258N11279 1993 69 EP MM GERT 1993-09-25 12:00:00 TS 21.6000 -115.200 25 hurdat_epa main 469 469 O_____________ hurdat_epa EP141993 21.6000 -115.200 TD 25 -1 6 216
1993258N11279 1993 69 EP MM GERT 1993-09-25 15:00:00 TS 21.3925 -115.392 main 499 499 P_____________ EP141993 21.3925 -115.392 TD 25 -1 5 223
1993258N11279 1993 69 EP MM GERT 1993-09-25 18:00:00 TS 21.2000 -115.600 25 hurdat_epa main 530 530 O_____________ hurdat_epa EP141993 21.2000 -115.600 TD 25 -1 5 224
1993258N11279 1993 69 EP MM GERT 1993-09-25 21:00:00 TS 21.0025 -115.803 main 560 560 P_____________ EP141993 21.0025 -115.803 TD 22 -1 5 223
1993258N11279 1993 69 EP MM GERT 1993-09-26 00:00:00 TS 20.8000 -116.000 20 hurdat_epa main 591 O_____________ hurdat_epa EP141993 20.8000 -116.000 TD 20 -1 5 222

IBTrACS Databaseについて

本データベースは、米国NOAAが公開する1842年以降の世界の熱帯低気圧のベストトラックデータアーカイブInternational Best Track Archive for Climate Stewardship (IBTrACS)を、ウェブで閲覧しやすい形式に変換したものです。

最終更新日:2021-12-08